Atlas, Michigan
Current Conditions -  °F | °C
As of 4:53 AM on Saturday 25 Oct 2014 (Local Time) from KFNT Reporting Station
Haze Haze  
Wind Chill: 51°   Ceiling: 9000
Heat Index: 51°   Visibility: 5mi
Dew Point: 46°   Wind: 8mph
Humidity: 83%   Direction: 210°SSW
Pressure: 29.86"   Gusts: NA
Location:  42.94°N, 83.53°W
Report Text: KFNT 250853Z AUTO 21007KT 5SM HZ OVC090 11/08 A2986 RMK AO2 SLP111 T01060078 56025
Loading
Personal Weather Stations






























Interactive Weather Map
Tropical Storm Tracking
New forecast layout! Learn more

10-Day Weather Forecast

Advertisements
Track Severe Weather on mobile